createdAt,value
2022-10-08T00:00:19.891Z,10.84
2022-10-08T00:02:53.673Z,10.80
2022-10-08T00:05:26.242Z,10.78
2022-10-08T00:07:58.695Z,10.81
2022-10-08T00:10:32.975Z,10.81
2022-10-08T00:13:05.523Z,10.83
2022-10-08T00:15:38.041Z,10.90
2022-10-08T00:18:10.533Z,10.96
2022-10-08T00:20:44.076Z,11.01
2022-10-08T00:23:16.976Z,11.07
2022-10-08T00:25:49.488Z,11.10
2022-10-08T00:28:22.082Z,11.17
2022-10-08T00:30:55.916Z,11.19
2022-10-08T00:33:28.455Z,11.25
2022-10-08T00:36:06.489Z,11.32
2022-10-08T00:38:40.269Z,11.33
2022-10-08T00:41:22.819Z,11.37
2022-10-08T00:43:59.355Z,11.39
2022-10-08T00:46:47.860Z,11.43
2022-10-08T00:49:22.911Z,11.48
2022-10-08T00:51:56.770Z,11.51
2022-10-08T00:54:29.557Z,11.53
2022-10-08T00:57:02.051Z,11.56
2022-10-08T00:59:37.228Z,11.58
2022-10-08T01:02:11.388Z,11.60
2022-10-08T01:04:44.192Z,11.62
2022-10-08T01:07:36.251Z,11.65
2022-10-08T01:10:23.924Z,11.60
2022-10-08T01:13:18.286Z,11.58
2022-10-08T01:16:13.455Z,11.60
2022-10-08T01:18:57.651Z,11.52
2022-10-08T01:22:16.701Z,11.38
2022-10-08T01:25:26.069Z,11.26
2022-10-08T01:28:30.161Z,11.22
2022-10-08T01:31:11.069Z,11.21
2022-10-08T01:34:05.755Z,11.21
2022-10-08T01:36:45.697Z,11.24
2022-10-08T01:39:24.446Z,11.24
2022-10-08T01:42:01.942Z,11.19
2022-10-08T01:44:50.650Z,11.17
2022-10-08T01:47:23.986Z,11.13
2022-10-08T01:50:17.542Z,11.07
2022-10-08T01:52:59.259Z,11.09
2022-10-08T01:55:39.308Z,11.04
2022-10-08T01:58:36.246Z,11.00
2022-10-08T02:02:33.653Z,10.96
2022-10-08T02:05:07.978Z,10.84
2022-10-08T02:07:46.181Z,10.82
2022-10-08T02:10:23.929Z,10.74
2022-10-08T02:12:56.396Z,10.71
2022-10-08T02:15:59.464Z,10.57
2022-10-08T02:18:51.952Z,10.48
2022-10-08T02:21:28.717Z,10.46
2022-10-08T02:24:26.962Z,10.40
2022-10-08T02:27:05.806Z,10.38
2022-10-08T02:29:52.036Z,10.30
2022-10-08T02:32:38.087Z,10.23
2022-10-08T02:35:22.771Z,10.16
2022-10-08T02:38:05.204Z,10.15
2022-10-08T02:40:45.346Z,10.10
2022-10-08T02:43:32.054Z,10.10
2022-10-08T02:46:17.472Z,10.05
2022-10-08T02:49:28.203Z,10.01
2022-10-08T02:52:05.007Z,9.97
2022-10-08T02:54:43.062Z,9.99
2022-10-08T02:57:32.478Z,9.96
2022-10-08T03:00:06.381Z,9.96
2022-10-08T03:02:58.595Z,9.89
2022-10-08T03:05:31.330Z,9.88
2022-10-08T03:08:06.277Z,9.87
2022-10-08T03:10:41.814Z,9.87
2022-10-08T03:13:15.729Z,9.84
2022-10-08T03:15:53.816Z,9.84
2022-10-08T03:18:26.824Z,9.82
2022-10-08T03:20:59.708Z,9.85
2022-10-08T03:23:32.269Z,9.84
2022-10-08T03:26:05.130Z,9.85
2022-10-08T03:28:37.776Z,9.86
2022-10-08T03:31:10.592Z,9.88
2022-10-08T03:33:43.110Z,9.88
2022-10-08T03:36:15.644Z,9.89
2022-10-08T03:38:49.426Z,9.87
2022-10-08T03:41:22.110Z,9.86
2022-10-08T03:43:54.642Z,9.83
2022-10-08T03:46:27.492Z,9.79
2022-10-08T03:49:00.102Z,9.76
2022-10-08T03:51:32.877Z,9.71
2022-10-08T03:54:05.581Z,9.62
2022-10-08T03:56:38.112Z,9.56
2022-10-08T03:59:11.039Z,9.49
2022-10-08T04:01:43.695Z,9.41
2022-10-08T04:04:16.235Z,9.33
2022-10-08T04:06:48.796Z,9.27
2022-10-08T04:09:21.293Z,9.24
2022-10-08T04:11:53.923Z,9.20
2022-10-08T04:14:26.531Z,9.18
2022-10-08T04:16:59.934Z,9.19
2022-10-08T04:19:32.562Z,9.23
2022-10-08T04:22:05.152Z,9.29
2022-10-08T04:24:37.735Z,9.38
2022-10-08T04:27:10.285Z,9.44
2022-10-08T04:29:42.867Z,9.48
2022-10-08T04:32:16.455Z,9.54
2022-10-08T04:34:49.029Z,9.60
2022-10-08T04:37:22.561Z,9.64
2022-10-08T04:39:55.351Z,9.70
2022-10-08T04:42:27.967Z,9.74
2022-10-08T04:45:00.905Z,9.81
2022-10-08T04:47:33.532Z,9.84
2022-10-08T04:50:06.402Z,9.89
2022-10-08T04:52:38.871Z,9.95
2022-10-08T04:55:11.393Z,9.95
2022-10-08T04:57:44.051Z,10.02
2022-10-08T05:00:19.123Z,10.01
2022-10-08T05:02:52.142Z,10.07
2022-10-08T05:05:24.760Z,10.11
2022-10-08T05:07:57.239Z,10.13
2022-10-08T05:10:29.757Z,10.13
2022-10-08T05:13:03.152Z,10.14
2022-10-08T05:15:36.076Z,10.14
2022-10-08T05:18:08.590Z,10.15
2022-10-08T05:20:41.169Z,10.14
2022-10-08T05:23:13.702Z,10.11
2022-10-08T05:25:46.250Z,10.09
2022-10-08T05:28:18.862Z,10.09
2022-10-08T05:30:51.681Z,10.10
2022-10-08T05:33:24.196Z,10.09
2022-10-08T05:35:56.715Z,10.07
2022-10-08T05:38:34.013Z,10.05
2022-10-08T05:41:13.845Z,10.04
2022-10-08T05:43:47.959Z,10.02
2022-10-08T05:46:24.984Z,10.02
2022-10-08T05:49:01.540Z,10.03
2022-10-08T05:51:35.243Z,10.09
2022-10-08T05:54:07.798Z,10.06
2022-10-08T05:56:40.344Z,10.07
2022-10-08T05:59:20.910Z,10.10
2022-10-08T06:01:53.457Z,10.08
2022-10-08T06:04:26.034Z,10.02
2022-10-08T06:06:58.610Z,9.96
2022-10-08T06:09:31.347Z,9.94
2022-10-08T06:12:04.027Z,9.89
2022-10-08T06:14:36.593Z,9.86
2022-10-08T06:17:09.548Z,9.83
2022-10-08T06:19:42.108Z,9.79
2022-10-08T06:22:14.696Z,9.78
2022-10-08T06:24:47.345Z,9.77
2022-10-08T06:27:19.885Z,9.77
2022-10-08T06:29:52.496Z,9.76
2022-10-08T06:32:25.034Z,9.77
2022-10-08T06:34:57.530Z,9.78
2022-10-08T06:37:30.099Z,9.76
2022-10-08T06:40:02.722Z,9.76
2022-10-08T06:42:35.196Z,9.73
2022-10-08T06:45:08.406Z,9.72
2022-10-08T06:47:40.864Z,9.72
2022-10-08T06:50:13.382Z,9.73
2022-10-08T06:52:46.223Z,9.82
2022-10-08T06:55:18.962Z,9.88
2022-10-08T06:57:51.503Z,9.93
2022-10-08T07:00:24.084Z,9.95
2022-10-08T07:02:57.807Z,10.02
2022-10-08T07:05:30.449Z,10.07
2022-10-08T07:08:02.962Z,10.10
2022-10-08T07:10:35.813Z,10.12
2022-10-08T07:13:08.671Z,10.12
2022-10-08T07:15:41.722Z,10.16
2022-10-08T07:18:14.296Z,10.19
2022-10-08T07:20:56.049Z,10.20
2022-10-08T07:23:29.883Z,10.24
2022-10-08T07:26:07.425Z,10.26
2022-10-08T07:28:44.100Z,10.30
2022-10-08T07:31:24.739Z,10.34
2022-10-08T07:33:59.900Z,10.32
2022-10-08T07:36:33.316Z,10.35
2022-10-08T07:39:14.546Z,10.39
2022-10-08T07:41:51.780Z,10.46
2022-10-08T07:44:24.801Z,10.53
2022-10-08T07:46:57.351Z,10.57
2022-10-08T07:49:29.877Z,10.66
2022-10-08T07:52:02.395Z,10.74
2022-10-08T07:54:34.925Z,10.79
2022-10-08T07:57:08.117Z,10.82
2022-10-08T07:59:40.751Z,10.89
2022-10-08T08:02:13.364Z,10.98
2022-10-08T08:04:45.891Z,11.05
2022-10-08T08:07:18.444Z,11.13
2022-10-08T08:09:51.009Z,11.10
2022-10-08T08:12:23.565Z,11.15
2022-10-08T08:14:56.123Z,11.21
2022-10-08T08:17:28.709Z,11.21
2022-10-08T08:20:01.179Z,11.25
2022-10-08T08:22:33.752Z,11.39
2022-10-08T08:25:06.566Z,11.45
2022-10-08T08:27:39.171Z,11.46
2022-10-08T08:30:13.118Z,11.58
2022-10-08T08:32:45.872Z,11.62
2022-10-08T08:35:18.598Z,11.58
2022-10-08T08:37:51.147Z,11.60
2022-10-08T08:40:23.815Z,11.61
2022-10-08T08:42:57.375Z,11.69
2022-10-08T08:45:46.304Z,11.78
2022-10-08T08:48:28.363Z,11.81
2022-10-08T08:51:04.652Z,11.86
2022-10-08T08:53:37.925Z,12.01
2022-10-08T08:56:16.324Z,12.05
2022-10-08T08:59:05.950Z,12.09
2022-10-08T09:01:48.730Z,12.13
2022-10-08T09:04:44.305Z,12.17
2022-10-08T09:07:26.608Z,12.16
2022-10-08T09:10:00.662Z,12.25
2022-10-08T09:12:39.777Z,12.36
2022-10-08T09:15:35.878Z,12.43
2022-10-08T09:18:15.105Z,12.47
2022-10-08T09:20:48.136Z,12.55
2022-10-08T09:23:23.985Z,12.65
2022-10-08T09:26:34.009Z,12.77
2022-10-08T09:29:07.190Z,12.77
2022-10-08T09:31:39.548Z,12.65
2022-10-08T09:34:20.893Z,12.83
2022-10-08T09:37:04.875Z,12.91
2022-10-08T09:39:38.229Z,12.77
2022-10-08T09:42:17.168Z,12.77
2022-10-08T09:44:59.075Z,12.58
2022-10-08T09:47:31.621Z,12.74
2022-10-08T09:50:21.413Z,12.94
2022-10-08T09:52:56.216Z,13.08
2022-10-08T09:55:35.227Z,13.37
2022-10-08T09:58:18.733Z,13.46
2022-10-08T10:01:12.348Z,13.64
2022-10-08T10:03:53.990Z,13.64
2022-10-08T10:06:34.820Z,13.37
2022-10-08T10:09:38.132Z,13.26
2022-10-08T10:12:21.047Z,13.18
2022-10-08T10:15:00.602Z,13.15
2022-10-08T10:17:49.760Z,13.06
2022-10-08T10:20:33.372Z,13.03
2022-10-08T10:23:20.960Z,13.04
2022-10-08T10:26:07.420Z,13.17
2022-10-08T10:28:57.126Z,13.39
2022-10-08T10:31:46.354Z,13.60
2022-10-08T10:34:27.911Z,13.86
2022-10-08T10:37:12.055Z,13.80
2022-10-08T10:39:54.043Z,13.71
2022-10-08T10:42:43.622Z,13.81
2022-10-08T10:45:31.128Z,13.98
2022-10-08T10:48:05.158Z,14.04
2022-10-08T10:50:44.816Z,14.05
2022-10-08T10:53:46.539Z,14.19
2022-10-08T10:56:22.006Z,14.17
2022-10-08T10:59:08.815Z,13.97
2022-10-08T11:02:06.861Z,13.76
2022-10-08T11:05:11.933Z,13.79
2022-10-08T11:08:27.125Z,14.01
2022-10-08T11:11:10.515Z,14.33
2022-10-08T11:14:17.364Z,14.41
2022-10-08T11:17:22.034Z,14.35
2022-10-08T11:20:20.537Z,14.38
2022-10-08T11:23:17.115Z,14.40
2022-10-08T11:26:20.822Z,14.44
2022-10-08T11:29:19.770Z,14.44
2022-10-08T11:31:53.109Z,14.32
2022-10-08T11:34:35.279Z,14.18
2022-10-08T11:37:10.371Z,13.87
2022-10-08T11:40:05.050Z,13.59
2022-10-08T11:42:48.315Z,13.40
2022-10-08T11:45:24.217Z,13.39
2022-10-08T11:48:00.277Z,13.50
2022-10-08T11:50:36.226Z,13.52
2022-10-08T11:53:13.805Z,13.68
2022-10-08T11:55:53.245Z,13.70
2022-10-08T11:58:31.593Z,13.88
2022-10-08T12:01:10.316Z,13.98
2022-10-08T12:03:43.759Z,14.12
2022-10-08T12:06:28.425Z,14.20
2022-10-08T12:09:07.520Z,14.41
2022-10-08T12:11:39.896Z,14.62
2022-10-08T12:14:12.468Z,14.67
2022-10-08T12:16:48.014Z,14.97
2022-10-08T12:19:32.746Z,15.12
2022-10-08T12:22:25.444Z,15.11
2022-10-08T12:24:59.583Z,15.08
2022-10-08T12:27:39.212Z,14.84
2022-10-08T12:30:16.610Z,14.77
2022-10-08T12:32:50.672Z,14.58
2022-10-08T12:36:02.403Z,14.57
2022-10-08T12:39:02.645Z,14.68
2022-10-08T12:42:19.168Z,14.64
2022-10-08T12:45:24.416Z,14.90
2022-10-08T12:48:33.863Z,14.92
2022-10-08T12:51:46.861Z,14.81
2022-10-08T12:54:26.811Z,14.57
2022-10-08T12:57:07.731Z,14.25
2022-10-08T12:59:42.285Z,14.18
2022-10-08T13:02:42.002Z,14.35
2022-10-08T13:05:46.335Z,14.25
2022-10-08T13:08:49.422Z,14.36
2022-10-08T13:11:22.854Z,14.45
2022-10-08T13:13:55.317Z,14.29
2022-10-08T13:16:28.501Z,14.47
2022-10-08T13:19:01.065Z,14.53
2022-10-08T13:21:38.121Z,14.47
2022-10-08T13:24:13.611Z,14.44
2022-10-08T13:26:54.393Z,14.40
2022-10-08T13:29:30.997Z,14.37
2022-10-08T13:32:11.072Z,14.30
2022-10-08T13:34:48.890Z,14.14
2022-10-08T13:37:21.476Z,14.11
2022-10-08T13:40:18.486Z,14.18
2022-10-08T13:42:56.808Z,13.96
2022-10-08T13:45:39.099Z,13.81
2022-10-08T13:48:13.665Z,13.78
2022-10-08T13:50:50.473Z,13.73
2022-10-08T13:53:26.447Z,13.78
2022-10-08T13:55:59.619Z,13.88
2022-10-08T13:58:32.713Z,13.93
2022-10-08T14:01:05.331Z,14.08
2022-10-08T14:03:37.836Z,14.13
2022-10-08T14:06:10.376Z,14.27
2022-10-08T14:08:42.896Z,14.30
2022-10-08T14:11:17.767Z,14.41
2022-10-08T14:13:50.292Z,14.46
2022-10-08T14:16:22.805Z,14.52
2022-10-08T14:18:59.158Z,14.57
2022-10-08T14:21:32.044Z,14.42
2022-10-08T14:24:04.732Z,14.37
2022-10-08T14:26:37.370Z,14.43
2022-10-08T14:29:09.917Z,14.52
2022-10-08T14:31:42.480Z,14.47
2022-10-08T14:34:14.974Z,14.61
2022-10-08T14:36:50.003Z,14.74
2022-10-08T14:39:22.871Z,14.70
2022-10-08T14:41:55.461Z,14.62
2022-10-08T14:44:27.981Z,14.51
2022-10-08T14:47:00.610Z,14.27
2022-10-08T14:49:33.153Z,13.85
2022-10-08T14:52:05.702Z,13.85
2022-10-08T14:54:38.286Z,13.58
2022-10-08T14:57:10.745Z,13.49
2022-10-08T14:59:43.179Z,13.44
2022-10-08T15:02:15.800Z,13.42
2022-10-08T15:04:48.381Z,13.26
2022-10-08T15:07:21.254Z,13.23
2022-10-08T15:09:53.789Z,13.20
2022-10-08T15:12:26.285Z,13.10
2022-10-08T15:14:58.794Z,13.06
2022-10-08T15:17:31.591Z,13.07
2022-10-08T15:20:04.791Z,13.11
2022-10-08T15:22:37.563Z,13.14
2022-10-08T15:25:10.244Z,13.11
2022-10-08T15:27:43.958Z,13.11
2022-10-08T15:30:16.560Z,13.14
2022-10-08T15:32:49.534Z,13.04
2022-10-08T15:35:22.555Z,12.98
2022-10-08T15:37:55.078Z,12.93
2022-10-08T15:40:31.067Z,12.92
2022-10-08T15:43:03.572Z,12.96
2022-10-08T15:45:43.591Z,12.99
2022-10-08T15:48:16.836Z,13.04
2022-10-08T15:50:58.861Z,13.12
2022-10-08T15:53:38.598Z,13.13
2022-10-08T15:56:12.096Z,13.16
2022-10-08T15:58:52.074Z,13.14
2022-10-08T16:01:26.319Z,13.14
2022-10-08T16:04:00.024Z,13.16
2022-10-08T16:06:36.082Z,13.12
2022-10-08T16:09:10.073Z,13.04
2022-10-08T16:11:44.926Z,13.09
2022-10-08T16:14:20.829Z,13.23
2022-10-08T16:16:55.022Z,13.17
2022-10-08T16:19:28.480Z,13.12
2022-10-08T16:22:01.365Z,13.10
2022-10-08T16:24:34.116Z,13.00
2022-10-08T16:27:06.953Z,12.94
2022-10-08T16:29:39.539Z,12.81
2022-10-08T16:32:12.995Z,12.75
2022-10-08T16:34:53.324Z,12.58
2022-10-08T16:37:26.365Z,12.53
2022-10-08T16:40:03.928Z,12.42
2022-10-08T16:42:36.701Z,12.35
2022-10-08T16:45:10.063Z,12.23
2022-10-08T16:47:42.851Z,12.23
2022-10-08T16:50:15.540Z,12.10
2022-10-08T16:52:48.578Z,12.03
2022-10-08T16:55:21.483Z,11.96
2022-10-08T16:57:55.521Z,11.86
2022-10-08T17:00:28.598Z,11.72
2022-10-08T17:03:01.763Z,11.60
2022-10-08T17:05:34.677Z,11.46
2022-10-08T17:08:07.482Z,11.31
2022-10-08T17:10:40.246Z,11.15
2022-10-08T17:13:21.092Z,10.98
2022-10-08T17:16:07.803Z,10.83
2022-10-08T17:18:41.185Z,10.73
2022-10-08T17:21:22.133Z,10.61
2022-10-08T17:23:57.729Z,10.48
2022-10-08T17:26:36.336Z,10.37
2022-10-08T17:29:13.336Z,10.27
2022-10-08T17:31:46.445Z,10.16
2022-10-08T17:34:19.347Z,10.02
2022-10-08T17:36:52.311Z,9.93
2022-10-08T17:39:26.043Z,9.81
2022-10-08T17:42:06.172Z,9.70
2022-10-08T17:44:40.655Z,9.61
2022-10-08T17:47:13.611Z,9.54
2022-10-08T17:49:46.585Z,9.47
2022-10-08T17:52:19.290Z,9.42
2022-10-08T17:54:52.098Z,9.39
2022-10-08T17:57:25.062Z,9.32
2022-10-08T17:59:58.052Z,9.26
2022-10-08T18:02:31.041Z,9.20
2022-10-08T18:05:07.155Z,9.19
2022-10-08T18:07:42.620Z,9.14
2022-10-08T18:10:15.654Z,9.14
2022-10-08T18:12:51.410Z,9.08
2022-10-08T18:15:25.209Z,9.03
2022-10-08T18:17:58.157Z,8.94
2022-10-08T18:20:31.085Z,8.87
2022-10-08T18:23:11.653Z,8.81
2022-10-08T18:25:44.197Z,8.74
2022-10-08T18:28:19.665Z,8.63
2022-10-08T18:30:52.413Z,8.52
2022-10-08T18:33:24.958Z,8.42
2022-10-08T18:35:57.913Z,8.32
2022-10-08T18:38:30.548Z,8.24
2022-10-08T18:41:18.975Z,8.17
2022-10-08T18:43:52.408Z,8.14
2022-10-08T18:46:25.554Z,8.09
2022-10-08T18:48:58.191Z,8.07
2022-10-08T18:51:31.276Z,8.05
2022-10-08T18:54:04.163Z,8.03
2022-10-08T18:56:39.763Z,8.02
2022-10-08T18:59:15.358Z,7.99
2022-10-08T19:01:48.497Z,7.97
2022-10-08T19:04:22.745Z,7.95
2022-10-08T19:06:55.354Z,7.94
2022-10-08T19:09:28.400Z,7.90
2022-10-08T19:12:01.224Z,7.85
2022-10-08T19:14:34.906Z,7.78
2022-10-08T19:17:07.584Z,7.70
2022-10-08T19:19:40.351Z,7.59
2022-10-08T19:22:12.997Z,7.52
2022-10-08T19:24:46.010Z,7.48
2022-10-08T19:27:18.807Z,7.43
2022-10-08T19:29:51.633Z,7.40
2022-10-08T19:32:24.712Z,7.34
2022-10-08T19:35:00.694Z,7.30
2022-10-08T19:37:33.391Z,7.23
2022-10-08T19:40:06.927Z,7.16
2022-10-08T19:42:39.672Z,7.09
2022-10-08T19:45:14.614Z,6.99
2022-10-08T19:47:47.900Z,6.92
2022-10-08T19:50:20.643Z,6.85
2022-10-08T19:52:53.627Z,6.74
2022-10-08T19:55:26.687Z,6.67
2022-10-08T19:57:59.458Z,6.59
2022-10-08T20:00:32.311Z,6.52
2022-10-08T20:03:04.871Z,6.48
2022-10-08T20:05:37.693Z,6.45
2022-10-08T20:08:10.292Z,6.40
2022-10-08T20:10:43.266Z,6.39
2022-10-08T20:13:15.847Z,6.34
2022-10-08T20:15:51.364Z,6.30
2022-10-08T20:18:24.740Z,6.25
2022-10-08T20:21:10.483Z,6.20
2022-10-08T20:23:43.061Z,6.17
2022-10-08T20:26:24.515Z,6.12
2022-10-08T20:29:01.021Z,6.08
2022-10-08T20:31:40.976Z,6.07
2022-10-08T20:34:19.886Z,6.04
2022-10-08T20:36:53.374Z,6.00
2022-10-08T20:39:26.003Z,5.99
2022-10-08T20:41:59.662Z,5.95
2022-10-08T20:44:32.136Z,5.92
2022-10-08T20:47:04.770Z,5.88
2022-10-08T20:49:37.244Z,5.86
2022-10-08T20:52:09.804Z,5.83
2022-10-08T20:54:43.869Z,5.82
2022-10-08T20:57:16.423Z,5.84
2022-10-08T20:59:49.196Z,5.83
2022-10-08T21:02:24.870Z,5.81
2022-10-08T21:04:57.409Z,5.77
2022-10-08T21:07:29.909Z,5.73
2022-10-08T21:10:02.946Z,5.68
2022-10-08T21:12:35.485Z,5.64
2022-10-08T21:15:09.580Z,5.61
2022-10-08T21:17:42.095Z,5.59
2022-10-08T21:20:14.652Z,5.55
2022-10-08T21:22:47.444Z,5.52
2022-10-08T21:25:21.448Z,5.49
2022-10-08T21:27:53.938Z,5.44
2022-10-08T21:30:26.520Z,5.42
2022-10-08T21:32:59.233Z,5.38
2022-10-08T21:35:31.835Z,5.36
2022-10-08T21:38:04.466Z,5.33
2022-10-08T21:40:39.571Z,5.30
2022-10-08T21:43:12.321Z,5.28
2022-10-08T21:45:57.114Z,5.22
2022-10-08T21:48:30.544Z,5.18
2022-10-08T21:51:11.258Z,5.14
2022-10-08T21:53:50.551Z,5.12
2022-10-08T21:56:26.893Z,5.09
2022-10-08T21:59:01.905Z,5.08
2022-10-08T22:01:47.137Z,5.06
2022-10-08T22:04:23.713Z,5.04
2022-10-08T22:06:59.787Z,5.02
2022-10-08T22:09:34.723Z,4.98
2022-10-08T22:12:07.240Z,4.97
2022-10-08T22:14:39.727Z,4.94
2022-10-08T22:17:12.273Z,4.92
2022-10-08T22:19:44.739Z,4.90
2022-10-08T22:22:17.288Z,4.88
2022-10-08T22:24:49.773Z,4.84
2022-10-08T22:27:22.517Z,4.80
2022-10-08T22:29:55.122Z,4.77
2022-10-08T22:32:27.900Z,4.74
2022-10-08T22:35:00.479Z,4.71
2022-10-08T22:37:33.021Z,4.69
2022-10-08T22:40:06.277Z,4.70
2022-10-08T22:42:38.789Z,4.68
2022-10-08T22:45:11.917Z,4.65
2022-10-08T22:47:48.149Z,4.61
2022-10-08T22:50:20.748Z,4.58
2022-10-08T22:52:53.265Z,4.55
2022-10-08T22:55:25.776Z,4.54
2022-10-08T22:57:58.251Z,4.53
2022-10-08T23:00:30.774Z,4.51
2022-10-08T23:03:03.461Z,4.48
2022-10-08T23:05:36.032Z,4.47
2022-10-08T23:08:08.538Z,4.45
2022-10-08T23:10:40.987Z,4.45
2022-10-08T23:13:13.462Z,4.41
2022-10-08T23:15:45.925Z,4.40
2022-10-08T23:18:18.421Z,4.38
2022-10-08T23:20:50.931Z,4.38
2022-10-08T23:23:23.472Z,4.39
2022-10-08T23:25:59.473Z,4.35
2022-10-08T23:28:34.351Z,4.33
2022-10-08T23:31:10.171Z,4.29
2022-10-08T23:33:46.902Z,4.26
2022-10-08T23:36:27.228Z,4.21
2022-10-08T23:39:00.564Z,4.21
2022-10-08T23:41:33.692Z,4.18
2022-10-08T23:44:07.229Z,4.15
2022-10-08T23:46:39.762Z,4.12
2022-10-08T23:49:12.274Z,4.08
2022-10-08T23:51:44.804Z,4.09
2022-10-08T23:54:17.343Z,4.09
2022-10-08T23:56:49.917Z,4.10
2022-10-08T23:59:22.386Z,4.08
